Time;durP1;ratioP1;P1;durP2;ratioP2;P2;SDS_P1;SDS_P2;PMS_P1;PMS_P2;Temp;Humidity;BMP_temperature;BMP_pressure;BME280_temperature;BME280_humidity;BME280_pressure;Samples;Min_cycle;Max_cycle;Signal;HPM_P1;HPM_P2
2021/09/20 00:00:34;;;;;;;7.88;3.75;;;10.20;99.90;;;8.54;92.00;101368.72;2568149;30;136963;-42
2021/09/20 00:03:02;;;;;;;6.70;3.85;;;10.10;99.90;;;8.48;91.83;101371.06;2568173;30;137100;-40
2021/09/20 00:05:30;;;;;;;;;;;10.10;99.90;;;8.42;92.10;101366.38;2567083;30;136765;-40
2021/09/20 00:07:59;;;;;;;5.00;3.33;;;10.10;99.90;;;8.37;91.99;101366.09;2568970;30;136665;-40
2021/09/20 00:10:27;;;;;;;6.35;3.63;;;10.00;99.90;;;8.35;92.18;101366.31;2568414;30;137775;-40
2021/09/20 00:12:55;;;;;;;5.85;3.33;;;10.00;99.90;;;8.32;92.42;101368.53;2568750;30;136877;-41
2021/09/20 00:15:23;;;;;;;6.13;3.30;;;10.00;99.90;;;8.27;92.57;101374.53;2564937;30;137446;-40
2021/09/20 00:17:51;;;;;;;5.53;3.45;;;9.90;99.90;;;8.21;92.18;101375.25;2568997;30;137035;-40
2021/09/20 00:20:21;;;;;;;6.32;3.90;;;9.80;99.90;;;8.17;92.27;101377.47;2567279;30;138643;-40
2021/09/20 00:22:49;;;;;;;6.28;3.85;;;9.80;99.90;;;8.14;92.21;101371.59;2569271;30;137441;-40
2021/09/20 00:25:17;;;;;;;5.97;3.75;;;9.80;99.90;;;8.07;92.55;101369.56;2567837;30;136745;-40
2021/09/20 00:27:44;;;;;;;5.88;3.60;;;9.70;99.90;;;8.04;92.51;101369.13;2567308;30;138909;-40
2021/09/20 00:30:16;;;;;;;6.18;3.42;;;9.70;99.90;;;8.01;92.58;101364.06;2568018;30;137447;-40
2021/09/20 00:32:44;;;;;;;8.65;3.67;;;9.70;99.90;;;8.01;92.99;101366.78;2568556;30;137878;-40
2021/09/20 00:35:12;;;;;;;5.78;3.70;;;9.60;99.90;;;7.96;93.01;101371.91;2567503;30;137379;-40
2021/09/20 00:37:47;;;;;;;6.20;3.70;;;9.60;99.90;;;7.94;93.06;101373.94;2567938;30;139304;-40
2021/09/20 00:40:15;;;;;;;6.25;3.85;;;9.60;99.90;;;7.92;93.42;101366.81;2568596;30;137371;-40
2021/09/20 00:42:42;;;;;;;6.70;3.60;;;9.60;99.90;;;7.90;93.53;101374.31;2567041;30;138600;-40
2021/09/20 00:45:10;;;;;;;5.78;3.42;;;9.50;99.90;;;7.87;94.02;101373.84;2567187;30;137417;-40
2021/09/20 00:47:40;;;;;;;5.95;3.70;;;9.50;99.90;;;7.84;93.63;101372.31;2568816;30;139286;-40
2021/09/20 00:50:09;;;;;;;7.75;4.50;;;9.50;99.90;;;7.83;93.62;101377.94;2567476;30;137861;-40
2021/09/20 00:52:37;;;;;;;6.65;3.80;;;9.50;99.90;;;7.85;94.23;101378.63;2568169;30;138092;-42
2021/09/20 00:55:09;;;;;;;6.65;4.00;;;9.50;99.90;;;7.83;94.30;101376.06;2567657;30;137495;-40
2021/09/20 00:57:40;;;;;;;7.22;3.80;;;9.50;99.90;;;7.81;93.41;101374.53;2567529;30;136873;-40
2021/09/20 01:00:09;;;;;;;6.68;3.78;;;9.50;99.90;;;7.78;93.77;101375.75;2566008;30;137184;-40
2021/09/20 01:02:37;;;;;;;6.50;4.07;;;9.40;99.90;;;7.75;94.45;101370.69;2566936;30;138453;-40
2021/09/20 01:05:08;;;;;;;6.72;4.05;;;9.40;99.90;;;7.73;94.48;101379.00;2567840;30;137009;-40
2021/09/20 01:07:37;;;;;;;6.10;3.65;;;9.40;99.90;;;7.67;94.48;101374.31;2565360;30;138744;-40
2021/09/20 01:10:08;;;;;;;7.65;4.00;;;9.40;99.90;;;7.69;94.57;101382.25;2565410;30;137253;-40
2021/09/20 01:12:36;;;;;;;7.57;4.10;;;9.30;99.90;;;7.65;94.63;101375.50;2567962;30;138321;-40
2021/09/20 01:15:05;;;;;;;9.23;4.40;;;9.30;99.90;;;7.65;94.79;101379.06;2573660;30;137724;-39
2021/09/20 01:17:33;;;;;;;7.75;4.30;;;9.30;99.90;;;7.61;94.68;101384.00;2568426;30;138030;-39
2021/09/20 01:20:02;;;;;;;8.52;4.05;;;9.30;99.90;;;7.60;94.37;101378.78;2569253;30;136602;-39
2021/09/20 01:22:31;;;;;;;7.05;4.00;;;9.20;99.90;;;7.58;94.45;101378.09;2569515;30;139047;-39
2021/09/20 01:24:58;;;;;;;6.53;4.07;;;9.20;99.90;;;7.58;94.95;101378.09;2568433;30;138052;-39
2021/09/20 01:27:27;;;;;;;8.70;4.30;;;9.20;99.90;;;7.58;95.31;101376.22;2567905;30;138456;-39
2021/09/20 01:29:54;;;;;;;7.20;4.07;;;9.20;99.90;;;7.56;95.13;101381.00;2568856;30;137586;-39
2021/09/20 01:32:22;;;;;;;7.22;4.28;;;9.20;99.90;;;7.54;95.03;101379.47;2568061;30;139066;-39
2021/09/20 01:34:49;;;;;;;8.10;4.13;;;9.20;99.90;;;7.51;95.10;101375.25;2568757;30;138586;-39
2021/09/20 01:37:17;;;;;;;7.50;4.32;;;9.20;99.90;;;7.46;94.83;101383.09;2568705;30;138918;-39
2021/09/20 01:39:45;;;;;;;8.38;4.55;;;9.10;99.90;;;7.42;95.17;101377.16;2568883;30;137271;-39
2021/09/20 01:42:12;;;;;;;6.38;4.25;;;9.10;99.90;;;7.40;95.49;101375.63;2568711;30;138432;-39
2021/09/20 01:44:40;;;;;;;7.55;4.05;;;9.00;99.90;;;7.38;95.33;101377.69;2567601;30;137574;-39
2021/09/20 01:47:08;;;;;;;8.93;4.13;;;9.00;99.90;;;7.34;95.35;101369.06;2568511;30;138397;-39
2021/09/20 01:49:35;;;;;;;9.68;4.60;;;9.00;99.90;;;7.33;95.54;101368.22;2569538;30;138244;-39
2021/09/20 01:52:03;;;;;;;7.45;4.40;;;9.00;99.90;;;7.33;95.46;101373.66;2567901;30;137160;-39
2021/09/20 01:54:31;;;;;;;8.00;4.78;;;9.00;99.90;;;7.30;95.37;101376.72;2566816;30;136937;-39
2021/09/20 01:56:59;;;;;;;6.88;4.28;;;8.90;99.90;;;7.12;95.43;101351.69;2569838;30;137870;-39
2021/09/20 01:59:27;;;;;;;6.78;4.40;;;8.90;99.90;;;7.23;95.47;101375.75;2570603;30;136675;-39
2021/09/20 02:01:54;;;;;;;8.68;4.68;;;8.90;99.90;;;7.20;95.60;101370.66;2567568;30;137416;-39
2021/09/20 02:04:22;;;;;;;6.45;4.13;;;8.90;99.90;;;7.18;95.78;101380.84;2570155;30;137302;-39
2021/09/20 02:06:50;;;;;;;7.85;4.03;;;8.80;99.90;;;7.15;95.86;101382.03;2569015;30;137863;-39
2021/09/20 02:09:18;;;;;;;;;;;8.80;99.90;;;7.11;95.60;101377.13;2568642;30;137522;-39
2021/09/20 02:11:46;;;;;;;7.57;4.30;;;8.80;99.90;;;7.05;95.53;101376.81;2570124;30;136927;-39
2021/09/20 02:14:13;;;;;;;6.30;3.90;;;8.80;99.90;;;7.08;95.73;101381.06;2568287;30;137425;-39
2021/09/20 02:16:41;;;;;;;8.27;4.50;;;8.70;99.90;;;7.06;95.96;101383.13;2568814;30;138151;-39
2021/09/20 02:19:09;;;;;;;7.65;4.03;;;8.70;99.90;;;7.04;95.73;101385.16;2569224;30;137589;-39
2021/09/20 02:21:37;;;;;;;7.20;4.40;;;8.70;99.90;;;7.00;95.51;101381.06;2569275;30;138160;-39
2021/09/20 02:24:05;;;;;;;8.80;4.53;;;8.70;99.90;;;6.98;95.36;101392.13;2568317;30;136960;-39
2021/09/20 02:26:33;;;;;;;7.13;4.22;;;8.60;99.90;;;6.90;95.37;101378.59;2570115;30;138887;-39
2021/09/20 02:29:00;;;;;;;;;;;8.60;99.90;;;6.96;95.93;101382.44;2569840;30;137028;-39
2021/09/20 02:31:28;;;;;;;8.20;4.07;;;8.60;99.90;;;6.99;96.44;101388.38;2570130;30;137646;-41
2021/09/20 02:33:56;;;;;;;7.95;4.50;;;8.60;99.90;;;7.01;96.39;101380.91;2570627;30;136894;-39
2021/09/20 02:36:24;;;;;;;;;;;8.70;99.90;;;7.01;96.78;101386.34;2568955;30;137368;-39
2021/09/20 02:38:52;;;;;;;7.97;4.30;;;8.70;99.90;;;7.03;96.91;101387.00;2569652;30;137276;-39
2021/09/20 02:41:20;;;;;;;7.75;4.95;;;8.70;99.90;;;7.04;97.22;101388.69;2568663;30;138632;-39
2021/09/20 02:43:48;;;;;;;8.75;4.60;;;8.70;99.90;;;7.09;98.17;101384.59;2570721;30;137659;-39
2021/09/20 02:46:16;;;;;;;6.90;4.53;;;8.70;99.90;;;7.08;97.71;101380.22;2568105;30;138811;-39
2021/09/20 02:48:43;;;;;;;7.95;4.57;;;8.70;99.90;;;7.13;98.21;101383.22;2570928;30;137504;-39
2021/09/20 02:51:11;;;;;;;7.32;4.80;;;8.70;99.90;;;7.11;98.58;101382.56;2569623;30;139173;-39
2021/09/20 02:53:38;;;;;;;8.88;4.75;;;8.70;99.90;;;7.11;98.75;101379.84;2568775;30;137509;-39
2021/09/20 02:56:06;;;;;;;9.73;5.13;;;8.70;99.90;;;7.07;98.24;101379.38;2568468;30;137433;-39
2021/09/20 02:58:34;;;;;;;8.65;4.88;;;8.70;99.90;;;7.06;98.03;101377.69;2567363;30;138418;-39
2021/09/20 03:01:02;;;;;;;8.18;5.13;;;8.70;99.90;;;7.07;97.93;101378.50;2570385;30;137071;-39
2021/09/20 03:03:30;;;;;;;7.30;4.63;;;8.70;99.90;;;7.08;97.74;101381.06;2568988;30;138060;-39
2021/09/20 03:05:57;;;;;;;7.53;4.88;;;8.70;99.90;;;7.05;97.78;101379.53;2568108;30;137778;-39
2021/09/20 03:08:25;;;;;;;8.43;5.03;;;8.70;99.90;;;7.03;97.88;101381.59;2569509;30;136733;-38
2021/09/20 03:10:53;;;;;;;8.80;5.35;;;8.70;99.90;;;7.00;97.91;101384.66;2569155;30;137235;-39
2021/09/20 03:13:21;;;;;;;8.93;4.93;;;8.60;99.90;;;6.98;97.85;101380.41;2569789;30;137523;-39
2021/09/20 03:15:49;;;;;;;8.13;4.78;;;8.60;99.90;;;6.96;97.85;101377.03;2567863;30;139060;-39
2021/09/20 03:18:16;;;;;;;7.60;4.45;;;8.60;99.90;;;6.93;97.64;101380.94;2568741;30;136744;-39
2021/09/20 03:20:44;;;;;;;8.45;5.00;;;8.60;99.90;;;6.93;97.92;101378.25;2569526;30;137242;-38
2021/09/20 03:23:12;;;;;;;9.13;5.55;;;8.60;99.90;;;6.96;98.41;101377.88;2569300;30;137817;-39
2021/09/20 03:25:40;;;;;;;9.73;5.63;;;8.60;99.90;;;6.97;98.98;101373.28;2567501;30;138238;-39
2021/09/20 03:28:07;;;;;;;;;;;8.60;99.90;;;6.98;98.88;101380.41;2567243;30;138530;-39
2021/09/20 03:30:35;;;;;;;8.32;5.15;;;8.60;99.90;;;6.95;98.74;101395.19;2569981;30;137353;-39
2021/09/20 03:33:02;;;;;;;9.25;5.68;;;8.60;99.90;;;6.92;98.50;101392.81;2569658;30;137719;-39
2021/09/20 03:35:30;;;;;;;8.32;5.07;;;8.60;99.90;;;6.87;98.39;101387.91;2569892;30;138285;-39
2021/09/20 03:37:58;;;;;;;9.60;5.47;;;8.50;99.90;;;6.85;97.93;101399.94;2571062;30;136904;-39
2021/09/20 03:40:25;;;;;;;10.50;5.20;;;8.50;99.90;;;6.85;98.31;101391.81;2570259;30;138227;-39
2021/09/20 03:42:53;;;;;;;8.00;4.63;;;8.50;99.90;;;6.88;98.61;101400.44;2569090;30;137758;-39
2021/09/20 03:45:20;;;;;;;9.60;5.18;;;8.50;99.90;;;6.83;98.64;101405.56;2568205;30;137629;-39
2021/09/20 03:47:48;;;;;;;8.70;5.22;;;8.50;99.90;;;6.78;98.52;101412.50;2569311;30;136848;-39
2021/09/20 03:50:16;;;;;;;7.38;4.75;;;8.50;99.90;;;6.74;98.11;101410.16;2570402;30;137265;-39
2021/09/20 03:52:44;;;;;;;8.85;4.55;;;8.40;99.90;;;6.71;97.78;101410.50;2568846;30;137532;-39
2021/09/20 03:55:13;;;;;;;8.23;4.70;;;8.40;99.90;;;6.65;97.75;101408.47;2569984;30;138691;-39
2021/09/20 03:57:40;;;;;;;8.95;5.05;;;8.30;99.90;;;6.61;97.49;101415.25;2570627;30;137286;-39
2021/09/20 04:00:10;;;;;;;7.85;4.85;;;8.30;99.90;;;6.59;97.47;101417.28;2568225;30;139007;-39
2021/09/20 04:02:38;;;;;;;8.45;4.88;;;8.30;99.90;;;6.57;97.49;101417.47;2570603;30;137360;-39
2021/09/20 04:05:07;;;;;;;8.63;4.68;;;8.30;99.90;;;6.55;97.78;101418.66;2569187;30;138350;-39
2021/09/20 04:07:41;;;;;;;8.70;4.93;;;8.20;99.90;;;6.52;97.32;101419.00;2569318;30;137609;-39
2021/09/20 04:10:10;;;;;;;8.70;4.78;;;8.20;99.90;;;6.49;97.55;101422.88;2569172;30;138302;-39
2021/09/20 04:12:37;;;;;;;9.80;4.88;;;8.20;99.90;;;6.47;97.43;101422.22;2569478;30;137441;-39
2021/09/20 04:15:06;;;;;;;8.00;4.38;;;8.20;99.90;;;6.43;97.10;101419.00;2569963;30;138190;-39
2021/09/20 04:17:34;;;;;;;8.80;5.05;;;8.20;99.90;;;6.39;96.93;101419.50;2567333;30;137447;-39
2021/09/20 04:20:05;;;;;;;8.73;5.10;;;8.10;99.90;;;6.34;97.19;101422.72;2568154;30;138909;-39
2021/09/20 04:22:32;;;;;;;6.95;4.50;;;8.10;99.90;;;6.28;97.44;101423.41;2568385;30;138513;-39
2021/09/20 04:25:00;;;;;;;8.10;4.70;;;8.00;99.90;;;6.29;97.14;101420.53;2568824;30;138278;-39
2021/09/20 04:27:28;;;;;;;8.90;4.80;;;8.00;99.90;;;6.29;96.94;101425.97;2567490;30;137666;-39
2021/09/20 04:29:55;;;;;;;;;;;8.00;99.90;;;6.26;96.97;101414.59;2567509;30;138647;-39
2021/09/20 04:32:24;;;;;;;7.68;4.30;;;7.90;99.90;;;6.23;96.70;101423.06;2568785;30;137073;-39
2021/09/20 04:34:51;;;;;;;7.85;4.55;;;8.00;99.90;;;6.21;96.99;101425.94;2568845;30;137451;-39
2021/09/20 04:37:19;;;;;;;8.18;4.60;;;7.90;99.90;;;6.19;96.93;101430.69;2571578;30;137556;-39
2021/09/20 04:39:47;;;;;;;8.57;5.18;;;7.90;99.90;;;6.17;97.12;101428.16;2568826;30;138403;-39
2021/09/20 04:42:15;;;;;;;8.05;4.28;;;7.90;99.90;;;6.15;97.27;101429.34;2567352;30;137165;-39
2021/09/20 04:44:43;;;;;;;8.27;4.93;;;7.80;99.90;;;6.15;97.38;101441.03;2569554;30;137282;-39
2021/09/20 04:47:11;;;;;;;;;;;7.80;99.90;;;6.12;97.54;101438.66;2570872;30;137391;-38
2021/09/20 04:49:39;;;;;;;9.32;5.07;;;7.80;99.90;;;6.09;97.60;101444.38;2568606;30;137437;-39
2021/09/20 04:52:07;;;;;;;9.02;5.07;;;7.80;99.90;;;6.09;97.33;101446.25;2568939;30;137464;-39
2021/09/20 04:54:34;;;;;;;9.35;4.85;;;7.80;99.90;;;6.01;97.48;101442.53;2569798;30;139149;-39
2021/09/20 04:57:02;;;;;;;8.32;4.35;;;7.80;99.90;;;6.03;97.55;101453.19;2569575;30;136817;-39
2021/09/20 04:59:30;;;;;;;8.35;4.90;;;7.70;99.90;;;6.02;97.54;101455.06;2569411;30;137426;-39
2021/09/20 05:01:58;;;;;;;8.95;4.30;;;7.70;99.90;;;6.01;97.51;101455.22;2566519;30;137612;-39
2021/09/20 05:04:25;;;;;;;8.00;4.72;;;7.70;99.90;;;6.01;97.61;101461.50;2568225;30;137466;-38
2021/09/20 05:06:53;;;;;;;9.18;4.80;;;7.70;99.90;;;6.02;97.59;101456.91;2567064;30;138114;-39
2021/09/20 05:09:21;;;;;;;7.78;4.95;;;7.70;99.90;;;6.05;97.69;101459.28;2568924;30;137448;-39
2021/09/20 05:11:48;;;;;;;9.13;4.95;;;7.70;99.90;;;6.07;97.82;101457.25;2568740;30;137531;-39
2021/09/20 05:14:16;;;;;;;9.43;5.13;;;7.70;99.90;;;6.11;97.84;101461.34;2569919;30;137703;-39
2021/09/20 05:16:43;;;;;;;9.00;4.88;;;7.70;99.90;;;6.12;97.93;101460.34;2569905;30;138009;-39
2021/09/20 05:19:11;;;;;;;10.02;4.97;;;7.80;99.90;;;6.15;98.07;101457.28;2569417;30;137723;-39
2021/09/20 05:21:39;;;;;;;7.68;4.28;;;7.80;99.90;;;6.18;98.43;101458.78;2567275;30;137183;-39
2021/09/20 05:24:06;;;;;;;8.40;5.00;;;7.80;99.90;;;6.18;98.28;101462.38;2570265;30;138268;-39
2021/09/20 05:26:34;;;;;;;8.48;4.88;;;7.80;99.90;;;6.27;98.65;101465.94;2566318;30;136804;-39
2021/09/20 05:29:02;;;;;;;8.73;4.70;;;7.90;99.90;;;6.33;98.77;101464.38;2569559;30;137307;-39
2021/09/20 05:31:29;;;;;;;9.23;5.30;;;7.90;99.90;;;6.40;99.11;101467.28;2569321;30;137678;-39
2021/09/20 05:33:57;;;;;;;9.32;5.03;;;8.00;99.90;;;6.46;99.17;101467.47;2570855;30;137383;-38
2021/09/20 05:36:24;;;;;;;7.95;4.95;;;8.00;99.90;;;6.53;99.70;101464.94;2568913;30;138227;-39
2021/09/20 05:38:52;;;;;;;9.00;5.05;;;8.10;99.90;;;6.61;100.00;101475.75;2569552;30;139030;-38
2021/09/20 05:41:22;;;;;;;11.55;5.25;;;8.20;99.90;;;6.69;100.00;101469.50;2566658;30;138209;-39
2021/09/20 05:43:50;;;;;;;11.32;5.47;;;8.20;99.90;;;6.72;100.00;101469.13;2565030;30;138546;-41
2021/09/20 05:46:17;;;;;;;9.82;5.40;;;8.30;99.90;;;6.85;100.00;101467.75;2570085;30;137210;-40
2021/09/20 05:48:45;;;;;;;10.70;5.45;;;8.40;99.90;;;6.96;100.00;101470.13;2567782;30;138153;-39
2021/09/20 05:51:13;;;;;;;9.02;5.43;;;8.50;99.90;;;7.07;100.00;101470.78;2568409;30;137534;-39
2021/09/20 05:53:41;;;;;;;10.57;5.93;;;8.60;99.90;;;7.18;100.00;101473.13;2568349;30;138177;-39
2021/09/20 05:56:13;;;;;;;9.82;5.60;;;8.70;99.90;;;7.28;100.00;101467.47;2568755;30;137487;-39
2021/09/20 05:58:41;;;;;;;9.77;6.00;;;8.80;99.90;;;7.39;100.00;101472.53;2571391;30;139092;-39
2021/09/20 06:01:09;;;;;;;12.55;6.70;;;8.90;99.90;;;7.54;100.00;101483.50;2570429;30;136745;-39
2021/09/20 06:03:37;;;;;;;11.85;6.88;;;9.00;99.90;;;7.65;100.00;101476.00;2569950;30;136999;-41
2021/09/20 06:06:04;;;;;;;;;;;9.10;99.90;;;7.74;100.00;101477.66;2570413;30;137558;-39
2021/09/20 06:08:32;;;;;;;12.27;6.30;;;9.20;99.90;;;7.86;100.00;101483.53;2568851;30;138325;-39
2021/09/20 06:10:59;;;;;;;10.93;5.97;;;9.30;99.90;;;7.98;100.00;101482.09;2569832;30;137207;-39
2021/09/20 06:13:27;;;;;;;12.40;6.55;;;9.40;99.90;;;8.10;100.00;101482.53;2568726;30;138283;-39
2021/09/20 06:15:55;;;;;;;12.40;7.10;;;9.50;99.90;;;8.26;100.00;101487.00;2570351;30;137498;-39
2021/09/20 06:18:22;;;;;;;12.43;7.05;;;9.70;99.90;;;8.38;100.00;101483.88;2566363;30;138225;-39
2021/09/20 06:20:50;;;;;;;13.75;7.88;;;9.80;99.90;;;8.49;100.00;101486.16;2569675;30;138345;-39
2021/09/20 06:23:18;;;;;;;13.50;7.72;;;9.90;99.90;;;8.59;100.00;101491.38;2569614;30;137803;-39
2021/09/20 06:25:45;;;;;;;14.00;7.80;;;10.00;99.90;;;8.71;100.00;101498.06;2569650;30;138294;-39
2021/09/20 06:28:15;;;;;;;14.13;7.68;;;10.10;99.90;;;8.82;100.00;101499.50;2568934;30;138556;-39
2021/09/20 06:30:44;;;;;;;12.90;7.65;;;10.20;99.90;;;8.96;100.00;101499.72;2567835;30;138351;-39
2021/09/20 06:33:11;;;;;;;12.43;7.70;;;10.30;99.90;;;9.04;100.00;101500.50;2568860;30;138447;-39
2021/09/20 06:35:39;;;;;;;;;;;10.40;99.90;;;9.14;100.00;101505.66;2568940;30;136901;-39
2021/09/20 06:38:07;;;;;;;12.40;6.97;;;10.50;99.90;;;9.26;100.00;101505.19;2570003;30;138969;-39
2021/09/20 06:40:34;;;;;;;13.25;7.43;;;10.60;99.90;;;9.39;100.00;101512.72;2569914;30;137476;-39
2021/09/20 06:43:03;;;;;;;12.07;7.60;;;10.70;99.90;;;9.49;100.00;101502.38;2569300;30;137900;-39
2021/09/20 06:45:30;;;;;;;13.60;7.72;;;10.80;99.90;;;9.58;100.00;101509.44;2569367;30;137535;-39
2021/09/20 06:48:01;;;;;;;12.45;7.55;;;10.90;99.90;;;9.64;100.00;101499.63;2568650;30;137786;-39
2021/09/20 06:50:29;;;;;;;12.75;7.68;;;11.00;99.90;;;9.73;100.00;101497.66;2569008;30;137351;-39
2021/09/20 06:52:56;;;;;;;12.88;7.55;;;11.10;99.90;;;9.82;99.63;101503.84;2569416;30;138516;-39
2021/09/20 06:55:24;;;;;;;12.07;7.35;;;11.20;99.90;;;9.93;97.67;101515.09;2569359;30;137295;-39
2021/09/20 06:57:57;;;;;;;;;;;11.30;99.90;;;10.01;97.70;101511.41;2570331;30;137702;-39
2021/09/20 07:00:26;;;;;;;13.45;7.10;;;11.40;99.90;;;10.13;95.44;101513.63;2567909;30;137578;-39
2021/09/20 07:02:55;;;;;;;12.60;7.45;;;11.50;99.90;;;10.21;94.50;101524.41;2566808;30;138141;-39
2021/09/20 07:05:24;;;;;;;11.88;7.38;;;11.50;99.90;;;10.30;95.05;101527.88;2569583;30;138265;-39
2021/09/20 07:07:51;;;;;;;12.98;7.53;;;11.60;99.90;;;10.39;95.15;101525.88;2569968;30;137769;-39
2021/09/20 07:10:20;;;;;;;11.70;7.63;;;11.70;99.90;;;10.54;95.73;101525.84;2568264;30;137482;-39
2021/09/20 07:12:47;;;;;;;12.50;7.57;;;11.80;99.90;;;10.63;95.35;101525.50;2568260;30;138543;-39
2021/09/20 07:15:16;;;;;;;11.45;7.07;;;11.90;99.90;;;10.72;93.50;101528.09;2574088;30;137848;-41
2021/09/20 07:17:43;;;;;;;11.55;6.95;;;12.00;99.90;;;10.78;92.32;101527.34;2566064;30;137706;-40
2021/09/20 07:20:12;;;;;;;11.35;7.13;;;12.10;99.90;;;10.88;92.75;101522.38;2568603;30;136655;-40
2021/09/20 07:22:43;;;;;;;13.57;7.55;;;12.10;99.90;;;10.99;91.11;101537.38;2567420;30;138635;-40
2021/09/20 07:25:13;;;;;;;12.90;7.07;;;12.20;99.90;;;11.04;91.29;101532.16;2568654;30;136951;-40
2021/09/20 07:27:40;;;;;;;8.90;6.03;;;12.30;99.90;;;11.16;90.33;101534.34;2568399;30;137484;-40
2021/09/20 07:30:14;;;;;;;11.88;7.63;;;12.40;99.90;;;11.29;90.85;101539.88;2567353;30;136670;-40
2021/09/20 07:32:42;;;;;;;11.85;6.85;;;12.50;99.90;;;11.39;91.40;101535.94;2568077;30;138560;-40
2021/09/20 07:35:11;;;;;;;12.45;7.20;;;12.60;99.90;;;11.51;91.63;101548.03;2567992;30;136823;-40
2021/09/20 07:37:39;;;;;;;11.75;6.40;;;12.70;99.90;;;11.63;89.75;101540.94;2568190;30;139171;-40
2021/09/20 07:40:07;;;;;;;10.90;6.18;;;12.80;99.90;;;11.72;87.28;101540.78;2567714;30;137791;-40
2021/09/20 07:42:35;;;;;;;10.75;6.10;;;12.90;99.90;;;11.75;85.55;101543.09;2568695;30;137258;-40
2021/09/20 07:45:04;;;;;;;10.77;6.65;;;13.00;99.90;;;11.79;83.29;101544.38;2567268;30;136728;-40
2021/09/20 07:47:31;;;;;;;10.82;6.53;;;13.00;99.90;;;11.92;85.76;101554.53;2567514;30;138426;-40
2021/09/20 07:49:59;;;;;;;12.68;6.15;;;13.10;99.90;;;12.01;82.61;101557.97;2568778;30;136733;-40
2021/09/20 07:52:27;;;;;;;9.57;6.15;;;13.20;99.90;;;12.08;84.89;101543.28;2567641;30;137342;-40
2021/09/20 07:54:54;;;;;;;10.23;6.28;;;13.30;99.90;;;12.14;81.99;101552.53;2566977;30;137869;-40
2021/09/20 07:57:22;;;;;;;10.07;5.97;;;13.30;99.90;;;12.23;82.81;101553.19;2568152;30;137602;-40
2021/09/20 07:59:50;;;;;;;9.50;6.22;;;13.40;99.90;;;12.36;84.04;101555.13;2565743;30;137499;-40
2021/09/20 08:02:18;;;;;;;;;;;13.50;99.90;;;12.40;81.37;101561.88;2568992;30;137467;-40
2021/09/20 08:04:46;;;;;;;8.98;5.63;;;13.60;99.90;;;12.47;80.23;101560.00;2568664;30;137104;-40
2021/09/20 08:07:13;;;;;;;11.85;6.78;;;13.70;99.90;;;12.60;81.95;101561.94;2568225;30;137060;-41
2021/09/20 08:09:41;;;;;;;9.60;5.78;;;13.70;99.90;;;12.68;80.46;101555.38;2567921;30;137532;-40
2021/09/20 08:12:09;;;;;;;10.18;6.07;;;13.90;99.90;;;12.76;78.39;101568.03;2567136;30;138928;-40
2021/09/20 08:14:37;;;;;;;;;;;13.90;99.90;;;12.80;78.46;101556.47;2566813;30;137410;-40
2021/09/20 08:17:04;;;;;;;9.73;5.80;;;14.00;99.90;;;12.88;78.68;101560.06;2568632;30;138087;-40
2021/09/20 08:19:32;;;;;;;9.15;5.63;;;14.10;99.90;;;13.00;79.41;101566.59;2567829;30;138272;-40
2021/09/20 08:22:00;;;;;;;8.50;5.75;;;14.20;99.90;;;13.03;76.80;101568.91;2567526;30;136754;-40
2021/09/20 08:24:27;;;;;;;;;;;14.20;99.90;;;13.11;76.10;101567.84;2567722;30;137528;-40
2021/09/20 08:26:55;;;;;;;9.80;5.57;;;14.30;99.90;;;13.06;74.63;101564.91;2567120;30;137519;-40
2021/09/20 08:29:26;;;;;;;7.65;5.20;;;14.30;99.90;;;13.20;75.99;101566.59;2566439;30;137304;-40
2021/09/20 08:31:54;;;;;;;8.27;5.80;;;14.30;99.90;;;13.34;77.34;101572.88;2567313;30;138769;-40
2021/09/20 08:34:22;;;;;;;13.85;5.80;;;14.50;99.90;;;13.41;76.41;101566.56;2566588;30;137661;-40
2021/09/20 08:36:50;;;;;;;8.85;5.43;;;14.50;99.90;;;13.51;75.69;101576.06;2567606;30;138213;-41
2021/09/20 08:39:17;;;;;;;8.63;5.65;;;14.70;99.90;;;13.60;75.07;101581.31;2567760;30;137437;-40
2021/09/20 08:41:45;;;;;;;8.23;5.07;;;14.70;99.90;;;13.65;73.22;101576.00;2567909;30;139269;-41
2021/09/20 08:44:13;;;;;;;9.00;5.50;;;14.80;99.90;;;13.68;71.06;101577.50;2567521;30;137228;-40
2021/09/20 08:46:41;;;;;;;8.68;5.47;;;14.90;99.90;;;13.80;72.68;101590.31;2568564;30;138225;-40
2021/09/20 08:49:08;;;;;;;8.32;5.50;;;14.90;99.90;;;13.92;72.36;101578.66;2568557;30;138171;-40
2021/09/20 08:51:36;;;;;;;9.25;4.90;;;15.00;99.90;;;14.09;72.35;101584.53;2566671;30;137324;-40
2021/09/20 08:54:04;;;;;;;7.95;5.43;;;15.10;99.90;;;14.14;69.66;101590.22;2567663;30;137083;-40
2021/09/20 08:56:34;;;;;;;8.10;5.32;;;15.30;99.90;;;14.28;73.93;101596.47;2568035;30;136713;-40
2021/09/20 08:59:02;;;;;;;7.82;4.70;;;15.30;99.90;;;14.36;71.60;101598.97;2568460;30;138199;-41
2021/09/20 09:01:32;;;;;;;8.40;5.53;;;15.50;99.90;;;14.42;70.96;101602.75;2568476;30;138123;-41
2021/09/20 09:04:39;;;;;;;7.57;4.93;;;15.50;99.90;;;14.59;71.11;101605.81;2567600;30;137635;-41
2021/09/20 09:07:12;;;;;;;7.63;5.03;;;15.60;99.90;;;14.67;70.63;101601.97;2566717;30;138422;-40
2021/09/20 09:09:50;;;;;;;8.38;5.10;;;15.70;99.90;;;14.80;70.54;101612.88;2566022;30;137305;-41
2021/09/20 09:12:28;;;;;;;7.33;5.20;;;15.80;99.90;;;14.81;68.10;101617.31;2564286;30;138258;-40
2021/09/20 09:14:59;;;;;;;;;;;15.90;99.90;;;14.75;66.40;101612.72;2567991;30;137529;-41
2021/09/20 09:17:38;;;;;;;9.27;5.05;;;16.00;99.90;;;14.69;64.04;101610.81;2568463;30;139298;-40
2021/09/20 09:20:09;;;;;;;7.07;4.90;;;15.90;99.90;;;14.72;65.51;101617.78;2567578;30;137357;-41
2021/09/20 09:22:52;;;;;;;7.70;4.47;;;15.90;99.90;;;14.80;67.41;101623.88;2567788;30;138607;-40
2021/09/20 09:25:47;;;;;;;7.82;5.13;;;16.00;99.90;;;14.91;65.50;101627.81;2565181;30;137086;-40
2021/09/20 09:28:18;;;;;;;7.38;4.90;;;16.00;99.90;;;14.99;65.01;101618.47;2568393;30;137273;-41
2021/09/20 09:30:57;;;;;;;7.55;4.97;;;16.10;99.90;;;14.91;63.09;101627.00;2567746;30;137409;-41
2021/09/20 09:33:38;;;;;;;7.68;4.88;;;16.10;99.90;;;14.96;62.79;101627.97;2567298;30;137780;-40
2021/09/20 09:36:10;;;;;;;8.32;5.28;;;16.20;99.90;;;15.01;62.88;101629.25;2567265;30;137376;-41
2021/09/20 09:38:58;;;;;;;7.45;4.60;;;16.20;99.90;;;15.00;65.26;101633.88;2566988;30;137463;-40
2021/09/20 09:41:56;;;;;;;7.72;4.20;;;16.20;99.90;;;15.20;63.07;101633.72;2567797;30;137736;-40
2021/09/20 09:44:35;;;;;;;10.60;4.80;;;16.20;99.90;;;15.45;67.38;101637.56;2566406;30;138351;-41
2021/09/20 09:47:02;;;;;;;8.10;4.32;;;16.40;99.90;;;15.47;63.14;101638.16;2567817;30;136926;-40
2021/09/20 09:49:31;;;;;;;7.93;4.55;;;16.50;99.90;;;15.43;61.99;101635.00;2568829;30;137285;-41
2021/09/20 09:52:02;;;;;;;8.00;4.80;;;16.60;99.90;;;15.57;64.56;101641.22;2567538;30;137167;-40
2021/09/20 09:54:41;;;;;;;6.93;4.43;;;16.60;99.90;;;15.49;59.52;101638.78;2566660;30;137323;-41
2021/09/20 09:57:17;;;;;;;6.45;4.47;;;16.70;99.90;;;15.42;59.12;101632.50;2567600;30;137731;-40
2021/09/20 10:00:12;;;;;;;8.57;4.65;;;16.60;99.90;;;15.44;60.12;101639.44;2567622;30;137873;-40
2021/09/20 10:02:47;;;;;;;7.30;4.80;;;16.60;99.90;;;15.51;58.91;101640.22;2568769;30;137000;-40
2021/09/20 10:05:19;;;;;;;7.40;4.82;;;16.60;99.90;;;15.59;62.02;101639.09;2566841;30;137232;-40
2021/09/20 10:07:50;;;;;;;6.13;4.22;;;16.70;99.90;;;15.63;57.70;101637.56;2567520;30;137518;-40
2021/09/20 10:10:30;;;;;;;6.43;4.22;;;16.80;99.90;;;15.82;62.44;101643.97;2567006;30;138411;-41
2021/09/20 10:13:01;;;;;;;8.45;4.95;;;16.80;99.90;;;16.02;61.93;101653.91;2568347;30;137493;-41
2021/09/20 10:15:28;;;;;;;6.20;4.25;;;17.00;99.90;;;16.02;59.46;101639.34;2567336;30;139069;-41
2021/09/20 10:17:56;;;;;;;;;;;17.10;99.90;;;16.06;57.89;101641.41;2568044;30;138499;-40
2021/09/20 10:20:26;;;;;;;6.70;4.32;;;17.10;99.90;;;16.21;60.52;101649.28;2566542;30;138554;-41
2021/09/20 10:22:56;;;;;;;7.05;4.50;;;17.20;99.90;;;16.01;56.92;101648.66;2566976;30;138661;-40